sensor_id;sensor_type;location;lat;lon;timestamp;P1;durP1;ratioP1;P2;durP2;ratioP2
7179;SDS011;3631;42.152;24.756;2022-11-20T00:01:25;53.50;;;34.27;;
7179;SDS011;3631;42.152;24.756;2022-11-20T00:03:53;51.97;;;33.73;;
7179;SDS011;3631;42.152;24.756;2022-11-20T00:06:21;47.97;;;33.60;;
7179;SDS011;3631;42.152;24.756;2022-11-20T00:08:48;51.43;;;33.53;;
7179;SDS011;3631;42.152;24.756;2022-11-20T00:11:16;56.77;;;37.07;;
7179;SDS011;3631;42.152;24.756;2022-11-20T00:13:44;53.27;;;35.17;;
7179;SDS011;3631;42.152;24.756;2022-11-20T00:16:15;60.97;;;33.83;;
7179;SDS011;3631;42.152;24.756;2022-11-20T00:18:43;48.37;;;33.27;;
7179;SDS011;3631;42.152;24.756;2022-11-20T00:21:11;52.20;;;33.70;;
7179;SDS011;3631;42.152;24.756;2022-11-20T00:23:40;52.67;;;33.67;;
7179;SDS011;3631;42.152;24.756;2022-11-20T00:26:08;52.60;;;33.30;;
7179;SDS011;3631;42.152;24.756;2022-11-20T00:28:36;58.43;;;33.97;;
7179;SDS011;3631;42.152;24.756;2022-11-20T00:31:03;52.43;;;34.80;;
7179;SDS011;3631;42.152;24.756;2022-11-20T00:33:33;55.00;;;35.10;;
7179;SDS011;3631;42.152;24.756;2022-11-20T00:36:00;51.17;;;34.60;;
7179;SDS011;3631;42.152;24.756;2022-11-20T00:38:29;49.47;;;34.70;;
7179;SDS011;3631;42.152;24.756;2022-11-20T00:40:56;52.00;;;33.70;;
7179;SDS011;3631;42.152;24.756;2022-11-20T00:43:23;52.83;;;34.53;;
7179;SDS011;3631;42.152;24.756;2022-11-20T00:45:51;52.50;;;34.03;;
7179;SDS011;3631;42.152;24.756;2022-11-20T00:48:23;50.47;;;33.70;;
7179;SDS011;3631;42.152;24.756;2022-11-20T00:50:51;49.40;;;34.47;;
7179;SDS011;3631;42.152;24.756;2022-11-20T00:53:18;51.03;;;32.93;;
7179;SDS011;3631;42.152;24.756;2022-11-20T00:55:52;55.17;;;35.13;;
7179;SDS011;3631;42.152;24.756;2022-11-20T00:58:19;52.20;;;35.80;;
7179;SDS011;3631;42.152;24.756;2022-11-20T01:00:46;54.67;;;35.30;;
7179;SDS011;3631;42.152;24.756;2022-11-20T01:03:14;49.40;;;33.13;;
7179;SDS011;3631;42.152;24.756;2022-11-20T01:05:41;48.03;;;32.77;;
7179;SDS011;3631;42.152;24.756;2022-11-20T01:08:10;53.17;;;33.33;;
7179;SDS011;3631;42.152;24.756;2022-11-20T01:10:37;46.00;;;31.47;;
7179;SDS011;3631;42.152;24.756;2022-11-20T01:13:03;48.93;;;32.70;;
7179;SDS011;3631;42.152;24.756;2022-11-20T01:15:48;52.27;;;32.40;;
7179;SDS011;3631;42.152;24.756;2022-11-20T01:18:15;47.30;;;32.83;;
7179;SDS011;3631;42.152;24.756;2022-11-20T01:20:41;53.23;;;33.63;;
7179;SDS011;3631;42.152;24.756;2022-11-20T01:23:10;45.70;;;30.87;;
7179;SDS011;3631;42.152;24.756;2022-11-20T01:25:37;44.83;;;31.57;;
7179;SDS011;3631;42.152;24.756;2022-11-20T01:28:03;50.07;;;32.93;;
7179;SDS011;3631;42.152;24.756;2022-11-20T01:30:30;48.17;;;31.70;;
7179;SDS011;3631;42.152;24.756;2022-11-20T01:32:57;51.57;;;32.70;;
7179;SDS011;3631;42.152;24.756;2022-11-20T01:35:24;52.07;;;32.60;;
7179;SDS011;3631;42.152;24.756;2022-11-20T01:37:51;56.87;;;34.97;;
7179;SDS011;3631;42.152;24.756;2022-11-20T01:40:19;57.10;;;33.10;;
7179;SDS011;3631;42.152;24.756;2022-11-20T01:42:47;49.77;;;32.47;;
7179;SDS011;3631;42.152;24.756;2022-11-20T01:46:00;43.93;;;31.93;;
7179;SDS011;3631;42.152;24.756;2022-11-20T01:48:32;50.57;;;33.07;;
7179;SDS011;3631;42.152;24.756;2022-11-20T01:51:02;51.17;;;32.70;;
7179;SDS011;3631;42.152;24.756;2022-11-20T01:53:33;51.27;;;33.77;;
7179;SDS011;3631;42.152;24.756;2022-11-20T01:56:05;54.27;;;32.07;;
7179;SDS011;3631;42.152;24.756;2022-11-20T01:58:36;48.57;;;32.73;;
7179;SDS011;3631;42.152;24.756;2022-11-20T02:01:08;46.07;;;32.20;;
7179;SDS011;3631;42.152;24.756;2022-11-20T02:03:35;45.80;;;31.70;;
7179;SDS011;3631;42.152;24.756;2022-11-20T02:06:04;48.20;;;30.87;;
7179;SDS011;3631;42.152;24.756;2022-11-20T02:08:36;50.10;;;30.80;;
7179;SDS011;3631;42.152;24.756;2022-11-20T02:11:06;47.90;;;31.73;;
7179;SDS011;3631;42.152;24.756;2022-11-20T02:13:33;46.73;;;31.93;;
7179;SDS011;3631;42.152;24.756;2022-11-20T02:16:08;47.37;;;31.03;;
7179;SDS011;3631;42.152;24.756;2022-11-20T02:18:38;48.40;;;30.20;;
7179;SDS011;3631;42.152;24.756;2022-11-20T02:21:07;51.83;;;32.30;;
7179;SDS011;3631;42.152;24.756;2022-11-20T02:26:30;43.47;;;30.87;;
7179;SDS011;3631;42.152;24.756;2022-11-20T02:28:59;47.43;;;32.07;;
7179;SDS011;3631;42.152;24.756;2022-11-20T02:31:28;42.63;;;29.63;;
7179;SDS011;3631;42.152;24.756;2022-11-20T02:33:55;48.50;;;30.30;;
7179;SDS011;3631;42.152;24.756;2022-11-20T02:36:23;46.43;;;30.63;;
7179;SDS011;3631;42.152;24.756;2022-11-20T02:38:52;44.37;;;30.10;;
7179;SDS011;3631;42.152;24.756;2022-11-20T02:41:21;43.97;;;31.10;;
7179;SDS011;3631;42.152;24.756;2022-11-20T02:43:56;49.40;;;30.53;;
7179;SDS011;3631;42.152;24.756;2022-11-20T02:46:23;44.80;;;30.53;;
7179;SDS011;3631;42.152;24.756;2022-11-20T02:48:50;46.33;;;30.33;;
7179;SDS011;3631;42.152;24.756;2022-11-20T02:51:17;47.57;;;30.87;;
7179;SDS011;3631;42.152;24.756;2022-11-20T02:53:43;51.00;;;31.33;;
7179;SDS011;3631;42.152;24.756;2022-11-20T02:56:10;50.43;;;30.90;;
7179;SDS011;3631;42.152;24.756;2022-11-20T02:58:39;45.73;;;30.30;;
7179;SDS011;3631;42.152;24.756;2022-11-20T03:01:05;40.87;;;28.93;;
7179;SDS011;3631;42.152;24.756;2022-11-20T03:03:32;46.00;;;29.10;;
7179;SDS011;3631;42.152;24.756;2022-11-20T03:05:59;44.93;;;28.90;;
7179;SDS011;3631;42.152;24.756;2022-11-20T03:08:26;44.70;;;26.77;;
7179;SDS011;3631;42.152;24.756;2022-11-20T03:10:53;39.37;;;26.13;;
7179;SDS011;3631;42.152;24.756;2022-11-20T03:13:20;43.93;;;26.50;;
7179;SDS011;3631;42.152;24.756;2022-11-20T03:15:48;37.77;;;26.80;;
7179;SDS011;3631;42.152;24.756;2022-11-20T03:18:15;41.67;;;26.43;;
7179;SDS011;3631;42.152;24.756;2022-11-20T03:20:42;38.37;;;26.40;;
7179;SDS011;3631;42.152;24.756;2022-11-20T03:23:09;35.70;;;25.17;;
7179;SDS011;3631;42.152;24.756;2022-11-20T03:25:36;37.63;;;24.63;;
7179;SDS011;3631;42.152;24.756;2022-11-20T03:28:03;46.67;;;25.70;;
7179;SDS011;3631;42.152;24.756;2022-11-20T03:30:30;34.30;;;24.77;;
7179;SDS011;3631;42.152;24.756;2022-11-20T03:32:58;34.63;;;25.07;;
7179;SDS011;3631;42.152;24.756;2022-11-20T03:35:25;34.60;;;24.43;;
7179;SDS011;3631;42.152;24.756;2022-11-20T03:37:52;38.87;;;24.30;;
7179;SDS011;3631;42.152;24.756;2022-11-20T03:40:19;37.60;;;23.27;;
7179;SDS011;3631;42.152;24.756;2022-11-20T03:42:45;34.83;;;21.63;;
7179;SDS011;3631;42.152;24.756;2022-11-20T03:45:13;34.57;;;23.37;;
7179;SDS011;3631;42.152;24.756;2022-11-20T03:47:40;35.20;;;22.97;;
7179;SDS011;3631;42.152;24.756;2022-11-20T03:50:09;35.23;;;21.93;;
7179;SDS011;3631;42.152;24.756;2022-11-20T03:52:38;29.43;;;21.27;;
7179;SDS011;3631;42.152;24.756;2022-11-20T03:55:05;33.97;;;22.43;;
7179;SDS011;3631;42.152;24.756;2022-11-20T03:57:33;31.03;;;20.57;;
7179;SDS011;3631;42.152;24.756;2022-11-20T04:00:00;31.10;;;19.57;;
7179;SDS011;3631;42.152;24.756;2022-11-20T04:02:26;36.57;;;20.87;;
7179;SDS011;3631;42.152;24.756;2022-11-20T04:04:53;29.97;;;20.27;;
7179;SDS011;3631;42.152;24.756;2022-11-20T04:07:22;28.47;;;18.47;;
7179;SDS011;3631;42.152;24.756;2022-11-20T04:09:49;28.83;;;16.80;;
7179;SDS011;3631;42.152;24.756;2022-11-20T04:12:15;25.97;;;17.70;;
7179;SDS011;3631;42.152;24.756;2022-11-20T04:14:42;24.80;;;16.13;;
7179;SDS011;3631;42.152;24.756;2022-11-20T04:17:09;24.63;;;15.90;;
7179;SDS011;3631;42.152;24.756;2022-11-20T04:19:36;27.83;;;17.53;;
7179;SDS011;3631;42.152;24.756;2022-11-20T04:22:03;22.10;;;13.93;;
7179;SDS011;3631;42.152;24.756;2022-11-20T04:24:31;31.30;;;16.33;;
7179;SDS011;3631;42.152;24.756;2022-11-20T04:26:58;25.37;;;16.37;;
7179;SDS011;3631;42.152;24.756;2022-11-20T04:29:25;24.20;;;14.57;;
7179;SDS011;3631;42.152;24.756;2022-11-20T04:31:52;25.43;;;15.27;;
7179;SDS011;3631;42.152;24.756;2022-11-20T04:34:19;23.80;;;14.23;;
7179;SDS011;3631;42.152;24.756;2022-11-20T04:36:46;21.17;;;12.20;;
7179;SDS011;3631;42.152;24.756;2022-11-20T04:39:13;23.03;;;12.10;;
7179;SDS011;3631;42.152;24.756;2022-11-20T04:41:43;20.63;;;11.23;;
7179;SDS011;3631;42.152;24.756;2022-11-20T04:44:10;19.47;;;10.00;;
7179;SDS011;3631;42.152;24.756;2022-11-20T04:46:38;19.20;;;9.07;;
7179;SDS011;3631;42.152;24.756;2022-11-20T04:49:06;24.17;;;11.03;;
7179;SDS011;3631;42.152;24.756;2022-11-20T04:51:34;17.90;;;9.00;;
7179;SDS011;3631;42.152;24.756;2022-11-20T04:54:01;19.07;;;8.80;;
7179;SDS011;3631;42.152;24.756;2022-11-20T04:56:28;17.63;;;8.03;;
7179;SDS011;3631;42.152;24.756;2022-11-20T04:58:56;19.20;;;7.97;;
7179;SDS011;3631;42.152;24.756;2022-11-20T05:01:26;15.63;;;7.80;;
7179;SDS011;3631;42.152;24.756;2022-11-20T05:03:53;15.20;;;7.37;;
7179;SDS011;3631;42.152;24.756;2022-11-20T05:06:20;14.80;;;7.47;;
7179;SDS011;3631;42.152;24.756;2022-11-20T05:08:47;16.60;;;7.47;;
7179;SDS011;3631;42.152;24.756;2022-11-20T05:11:16;17.20;;;10.30;;
7179;SDS011;3631;42.152;24.756;2022-11-20T05:13:44;13.80;;;7.93;;
7179;SDS011;3631;42.152;24.756;2022-11-20T05:16:13;11.83;;;6.80;;
7179;SDS011;3631;42.152;24.756;2022-11-20T05:18:41;12.17;;;6.43;;
7179;SDS011;3631;42.152;24.756;2022-11-20T05:21:09;17.17;;;7.23;;
7179;SDS011;3631;42.152;24.756;2022-11-20T05:23:37;17.67;;;8.40;;
7179;SDS011;3631;42.152;24.756;2022-11-20T05:26:04;10.67;;;8.13;;
7179;SDS011;3631;42.152;24.756;2022-11-20T05:28:33;13.23;;;7.57;;
7179;SDS011;3631;42.152;24.756;2022-11-20T05:31:06;24.87;;;7.67;;
7179;SDS011;3631;42.152;24.756;2022-11-20T05:33:36;17.80;;;7.83;;
7179;SDS011;3631;42.152;24.756;2022-11-20T05:36:05;15.23;;;8.67;;
7179;SDS011;3631;42.152;24.756;2022-11-20T05:38:34;12.97;;;8.20;;
7179;SDS011;3631;42.152;24.756;2022-11-20T05:41:04;20.40;;;8.60;;
7179;SDS011;3631;42.152;24.756;2022-11-20T05:43:32;14.80;;;8.10;;
7179;SDS011;3631;42.152;24.756;2022-11-20T05:46:00;15.67;;;8.47;;
7179;SDS011;3631;42.152;24.756;2022-11-20T05:48:27;9.93;;;8.40;;
7179;SDS011;3631;42.152;24.756;2022-11-20T05:50:56;13.53;;;7.93;;
7179;SDS011;3631;42.152;24.756;2022-11-20T05:53:23;13.53;;;8.70;;
7179;SDS011;3631;42.152;24.756;2022-11-20T05:55:55;14.67;;;9.07;;
7179;SDS011;3631;42.152;24.756;2022-11-20T05:58:23;15.27;;;8.97;;
7179;SDS011;3631;42.152;24.756;2022-11-20T06:00:50;15.53;;;9.30;;
7179;SDS011;3631;42.152;24.756;2022-11-20T06:03:17;16.47;;;11.00;;
7179;SDS011;3631;42.152;24.756;2022-11-20T06:05:44;21.43;;;11.97;;
7179;SDS011;3631;42.152;24.756;2022-11-20T06:08:12;16.33;;;11.20;;
7179;SDS011;3631;42.152;24.756;2022-11-20T06:10:39;20.50;;;11.07;;
7179;SDS011;3631;42.152;24.756;2022-11-20T06:13:06;21.03;;;13.40;;
7179;SDS011;3631;42.152;24.756;2022-11-20T06:15:33;19.00;;;11.03;;
7179;SDS011;3631;42.152;24.756;2022-11-20T06:18:00;24.97;;;12.00;;
7179;SDS011;3631;42.152;24.756;2022-11-20T06:20:27;21.17;;;11.50;;
7179;SDS011;3631;42.152;24.756;2022-11-20T06:22:54;16.47;;;10.87;;
7179;SDS011;3631;42.152;24.756;2022-11-20T06:25:22;17.20;;;9.63;;
7179;SDS011;3631;42.152;24.756;2022-11-20T06:27:49;15.33;;;7.77;;
7179;SDS011;3631;42.152;24.756;2022-11-20T06:30:16;11.00;;;8.23;;
7179;SDS011;3631;42.152;24.756;2022-11-20T06:32:43;11.17;;;7.93;;
7179;SDS011;3631;42.152;24.756;2022-11-20T06:35:10;12.63;;;8.50;;
7179;SDS011;3631;42.152;24.756;2022-11-20T06:37:37;20.73;;;9.83;;
7179;SDS011;3631;42.152;24.756;2022-11-20T06:40:04;16.30;;;9.73;;
7179;SDS011;3631;42.152;24.756;2022-11-20T06:42:33;20.40;;;9.30;;
7179;SDS011;3631;42.152;24.756;2022-11-20T06:45:00;12.37;;;8.47;;
7179;SDS011;3631;42.152;24.756;2022-11-20T06:47:27;11.60;;;8.30;;
7179;SDS011;3631;42.152;24.756;2022-11-20T06:49:54;15.20;;;8.67;;
7179;SDS011;3631;42.152;24.756;2022-11-20T06:52:21;15.17;;;8.33;;
7179;SDS011;3631;42.152;24.756;2022-11-20T06:54:47;15.23;;;9.17;;
7179;SDS011;3631;42.152;24.756;2022-11-20T06:57:14;17.80;;;9.17;;
7179;SDS011;3631;42.152;24.756;2022-11-20T06:59:43;16.97;;;8.43;;
7179;SDS011;3631;42.152;24.756;2022-11-20T07:02:10;16.93;;;9.00;;
7179;SDS011;3631;42.152;24.756;2022-11-20T07:04:37;16.07;;;8.60;;
7179;SDS011;3631;42.152;24.756;2022-11-20T07:07:04;20.53;;;10.23;;
7179;SDS011;3631;42.152;24.756;2022-11-20T07:09:32;10.43;;;8.60;;
7179;SDS011;3631;42.152;24.756;2022-11-20T07:11:59;16.73;;;9.87;;
7179;SDS011;3631;42.152;24.756;2022-11-20T07:14:26;16.77;;;9.27;;
7179;SDS011;3631;42.152;24.756;2022-11-20T07:16:55;10.50;;;8.10;;
7179;SDS011;3631;42.152;24.756;2022-11-20T07:19:22;16.63;;;9.23;;
7179;SDS011;3631;42.152;24.756;2022-11-20T07:21:49;13.60;;;8.97;;
7179;SDS011;3631;42.152;24.756;2022-11-20T07:24:16;11.80;;;8.20;;
7179;SDS011;3631;42.152;24.756;2022-11-20T07:26:45;18.40;;;11.77;;
7179;SDS011;3631;42.152;24.756;2022-11-20T07:29:12;14.93;;;9.93;;
7179;SDS011;3631;42.152;24.756;2022-11-20T07:31:39;13.97;;;8.33;;
7179;SDS011;3631;42.152;24.756;2022-11-20T07:34:07;13.43;;;8.47;;
7179;SDS011;3631;42.152;24.756;2022-11-20T07:36:34;18.37;;;8.10;;
7179;SDS011;3631;42.152;24.756;2022-11-20T07:39:01;14.33;;;7.80;;
7179;SDS011;3631;42.152;24.756;2022-11-20T07:41:28;13.37;;;7.67;;
7179;SDS011;3631;42.152;24.756;2022-11-20T07:43:55;11.00;;;8.00;;
7179;SDS011;3631;42.152;24.756;2022-11-20T07:46:22;12.83;;;8.57;;
7179;SDS011;3631;42.152;24.756;2022-11-20T07:48:49;44.93;;;22.90;;
7179;SDS011;3631;42.152;24.756;2022-11-20T07:51:17;38.53;;;19.17;;
7179;SDS011;3631;42.152;24.756;2022-11-20T07:53:44;38.90;;;16.40;;
7179;SDS011;3631;42.152;24.756;2022-11-20T07:56:11;26.53;;;15.80;;
7179;SDS011;3631;42.152;24.756;2022-11-20T07:58:39;41.67;;;26.60;;
7179;SDS011;3631;42.152;24.756;2022-11-20T08:01:06;27.17;;;16.87;;
7179;SDS011;3631;42.152;24.756;2022-11-20T08:03:34;22.03;;;14.80;;
7179;SDS011;3631;42.152;24.756;2022-11-20T08:06:02;23.57;;;15.70;;
7179;SDS011;3631;42.152;24.756;2022-11-20T08:08:31;28.90;;;20.60;;
7179;SDS011;3631;42.152;24.756;2022-11-20T08:10:58;21.37;;;14.60;;
7179;SDS011;3631;42.152;24.756;2022-11-20T08:13:48;27.40;;;13.20;;
7179;SDS011;3631;42.152;24.756;2022-11-20T08:16:33;22.03;;;14.43;;
7179;SDS011;3631;42.152;24.756;2022-11-20T08:18:59;25.07;;;14.17;;
7179;SDS011;3631;42.152;24.756;2022-11-20T08:21:26;24.50;;;17.10;;
7179;SDS011;3631;42.152;24.756;2022-11-20T08:23:55;25.00;;;16.37;;
7179;SDS011;3631;42.152;24.756;2022-11-20T08:26:22;19.73;;;14.60;;
7179;SDS011;3631;42.152;24.756;2022-11-20T08:28:48;21.33;;;14.40;;
7179;SDS011;3631;42.152;24.756;2022-11-20T08:31:15;20.17;;;13.63;;
7179;SDS011;3631;42.152;24.756;2022-11-20T08:33:42;25.73;;;14.20;;
7179;SDS011;3631;42.152;24.756;2022-11-20T08:36:09;21.93;;;13.40;;
7179;SDS011;3631;42.152;24.756;2022-11-20T08:38:36;25.93;;;16.20;;
7179;SDS011;3631;42.152;24.756;2022-11-20T08:41:04;18.17;;;13.30;;
7179;SDS011;3631;42.152;24.756;2022-11-20T08:43:51;21.53;;;14.70;;
7179;SDS011;3631;42.152;24.756;2022-11-20T08:46:23;19.80;;;14.27;;
7179;SDS011;3631;42.152;24.756;2022-11-20T08:48:50;22.63;;;14.32;;
7179;SDS011;3631;42.152;24.756;2022-11-20T08:51:18;17.70;;;13.95;;
7179;SDS011;3631;42.152;24.756;2022-11-20T08:53:45;31.95;;;15.55;;
7179;SDS011;3631;42.152;24.756;2022-11-20T08:56:15;24.05;;;15.65;;
7179;SDS011;3631;42.152;24.756;2022-11-20T08:58:42;29.48;;;22.63;;
7179;SDS011;3631;42.152;24.756;2022-11-20T09:01:10;38.17;;;25.92;;
7179;SDS011;3631;42.152;24.756;2022-11-20T09:03:37;37.15;;;24.63;;
7179;SDS011;3631;42.152;24.756;2022-11-20T09:06:05;31.58;;;21.77;;
7179;SDS011;3631;42.152;24.756;2022-11-20T09:08:33;20.58;;;15.70;;
7179;SDS011;3631;42.152;24.756;2022-11-20T09:11:01;12.38;;;9.88;;
7179;SDS011;3631;42.152;24.756;2022-11-20T09:13:30;12.73;;;9.20;;
7179;SDS011;3631;42.152;24.756;2022-11-20T09:15:58;14.23;;;7.70;;
7179;SDS011;3631;42.152;24.756;2022-11-20T09:18:26;13.32;;;7.32;;
7179;SDS011;3631;42.152;24.756;2022-11-20T09:20:56;11.43;;;6.80;;
7179;SDS011;3631;42.152;24.756;2022-11-20T09:23:24;6.90;;;5.85;;
7179;SDS011;3631;42.152;24.756;2022-11-20T09:25:51;7.65;;;5.40;;
7179;SDS011;3631;42.152;24.756;2022-11-20T09:28:20;7.03;;;5.50;;
7179;SDS011;3631;42.152;24.756;2022-11-20T09:30:49;9.38;;;4.95;;
7179;SDS011;3631;42.152;24.756;2022-11-20T09:33:16;8.90;;;5.63;;
7179;SDS011;3631;42.152;24.756;2022-11-20T09:35:43;13.15;;;6.53;;
7179;SDS011;3631;42.152;24.756;2022-11-20T09:38:10;10.95;;;5.78;;
7179;SDS011;3631;42.152;24.756;2022-11-20T09:40:38;10.15;;;5.78;;
7179;SDS011;3631;42.152;24.756;2022-11-20T09:43:11;12.18;;;5.88;;
7179;SDS011;3631;42.152;24.756;2022-11-20T09:45:48;9.98;;;5.68;;
7179;SDS011;3631;42.152;24.756;2022-11-20T09:51:27;12.98;;;8.32;;
7179;SDS011;3631;42.152;24.756;2022-11-20T09:54:05;12.40;;;8.63;;
7179;SDS011;3631;42.152;24.756;2022-11-20T09:56:41;17.52;;;8.05;;
7179;SDS011;3631;42.152;24.756;2022-11-20T09:59:14;13.05;;;6.63;;
7179;SDS011;3631;42.152;24.756;2022-11-20T10:01:54;15.68;;;7.95;;
7179;SDS011;3631;42.152;24.756;2022-11-20T10:04:22;14.10;;;7.40;;
7179;SDS011;3631;42.152;24.756;2022-11-20T10:06:51;13.25;;;7.20;;
7179;SDS011;3631;42.152;24.756;2022-11-20T10:09:25;14.27;;;6.30;;
7179;SDS011;3631;42.152;24.756;2022-11-20T10:12:01;15.48;;;7.05;;
7179;SDS011;3631;42.152;24.756;2022-11-20T10:14:41;11.00;;;7.57;;
7179;SDS011;3631;42.152;24.756;2022-11-20T10:17:22;15.70;;;7.70;;
7179;SDS011;3631;42.152;24.756;2022-11-20T10:20:02;11.50;;;7.57;;
7179;SDS011;3631;42.152;24.756;2022-11-20T10:22:44;13.45;;;7.95;;
7179;SDS011;3631;42.152;24.756;2022-11-20T10:25:22;13.38;;;8.95;;
7179;SDS011;3631;42.152;24.756;2022-11-20T10:30:51;16.48;;;7.75;;
7179;SDS011;3631;42.152;24.756;2022-11-20T10:33:24;15.80;;;7.55;;
7179;SDS011;3631;42.152;24.756;2022-11-20T10:35:59;13.73;;;7.53;;
7179;SDS011;3631;42.152;24.756;2022-11-20T10:38:34;16.15;;;7.88;;
7179;SDS011;3631;42.152;24.756;2022-11-20T10:41:04;9.10;;;7.30;;
7179;SDS011;3631;42.152;24.756;2022-11-20T10:43:52;12.98;;;7.50;;
7179;SDS011;3631;42.152;24.756;2022-11-20T10:46:33;15.27;;;7.38;;
7179;SDS011;3631;42.152;24.756;2022-11-20T10:49:12;11.30;;;6.57;;
7179;SDS011;3631;42.152;24.756;2022-11-20T10:51:44;13.98;;;7.00;;
7179;SDS011;3631;42.152;24.756;2022-11-20T10:54:19;21.13;;;7.03;;
7179;SDS011;3631;42.152;24.756;2022-11-20T10:56:51;14.98;;;6.93;;
7179;SDS011;3631;42.152;24.756;2022-11-20T10:59:28;14.55;;;7.82;;
7179;SDS011;3631;42.152;24.756;2022-11-20T11:02:14;14.43;;;8.93;;
7179;SDS011;3631;42.152;24.756;2022-11-20T11:07:13;12.38;;;9.23;;
7179;SDS011;3631;42.152;24.756;2022-11-20T11:09:43;31.25;;;17.05;;
7179;SDS011;3631;42.152;24.756;2022-11-20T11:12:14;36.50;;;15.57;;
7179;SDS011;3631;42.152;24.756;2022-11-20T11:14:45;34.67;;;15.88;;
7179;SDS011;3631;42.152;24.756;2022-11-20T11:17:21;30.48;;;16.88;;
7179;SDS011;3631;42.152;24.756;2022-11-20T11:20:01;37.45;;;20.98;;
7179;SDS011;3631;42.152;24.756;2022-11-20T11:22:33;26.33;;;11.63;;
7179;SDS011;3631;42.152;24.756;2022-11-20T11:25:11;26.85;;;13.35;;
7179;SDS011;3631;42.152;24.756;2022-11-20T11:27:46;13.85;;;8.40;;
7179;SDS011;3631;42.152;24.756;2022-11-20T11:30:14;33.55;;;20.77;;
7179;SDS011;3631;42.152;24.756;2022-11-20T11:32:43;20.98;;;8.98;;
7179;SDS011;3631;42.152;24.756;2022-11-20T11:35:22;9.00;;;6.28;;
7179;SDS011;3631;42.152;24.756;2022-11-20T11:37:52;12.68;;;5.88;;
7179;SDS011;3631;42.152;24.756;2022-11-20T11:40:28;12.43;;;5.38;;
7179;SDS011;3631;42.152;24.756;2022-11-20T11:42:58;10.63;;;4.65;;
7179;SDS011;3631;42.152;24.756;2022-11-20T11:45:28;10.55;;;5.25;;
7179;SDS011;3631;42.152;24.756;2022-11-20T11:47:55;12.45;;;5.25;;
7179;SDS011;3631;42.152;24.756;2022-11-20T11:50:26;16.08;;;8.07;;
7179;SDS011;3631;42.152;24.756;2022-11-20T11:52:58;28.10;;;19.25;;
7179;SDS011;3631;42.152;24.756;2022-11-20T11:55:36;21.13;;;15.63;;
7179;SDS011;3631;42.152;24.756;2022-11-20T11:58:16;21.90;;;16.40;;
7179;SDS011;3631;42.152;24.756;2022-11-20T12:01:01;32.60;;;23.95;;
7179;SDS011;3631;42.152;24.756;2022-11-20T12:03:34;36.55;;;17.30;;
7179;SDS011;3631;42.152;24.756;2022-11-20T12:06:07;16.88;;;8.10;;
7179;SDS011;3631;42.152;24.756;2022-11-20T12:08:40;24.63;;;14.00;;
7179;SDS011;3631;42.152;24.756;2022-11-20T12:11:14;24.33;;;12.30;;
7179;SDS011;3631;42.152;24.756;2022-11-20T12:13:48;19.27;;;11.05;;
7179;SDS011;3631;42.152;24.756;2022-11-20T12:16:20;14.65;;;7.57;;
7179;SDS011;3631;42.152;24.756;2022-11-20T12:18:48;24.02;;;12.75;;
7179;SDS011;3631;42.152;24.756;2022-11-20T12:21:24;20.40;;;11.77;;
7179;SDS011;3631;42.152;24.756;2022-11-20T12:24:10;25.05;;;13.18;;
7179;SDS011;3631;42.152;24.756;2022-11-20T12:26:55;17.63;;;12.00;;
7179;SDS011;3631;42.152;24.756;2022-11-20T12:29:35;17.80;;;10.20;;
7179;SDS011;3631;42.152;24.756;2022-11-20T12:32:26;23.65;;;10.60;;
7179;SDS011;3631;42.152;24.756;2022-11-20T12:35:10;27.38;;;11.13;;
7179;SDS011;3631;42.152;24.756;2022-11-20T12:37:52;23.35;;;10.70;;
7179;SDS011;3631;42.152;24.756;2022-11-20T12:40:34;31.10;;;14.50;;
7179;SDS011;3631;42.152;24.756;2022-11-20T12:43:10;32.90;;;11.85;;
7179;SDS011;3631;42.152;24.756;2022-11-20T12:46:13;21.27;;;12.15;;
7179;SDS011;3631;42.152;24.756;2022-11-20T12:49:00;35.92;;;15.40;;
7179;SDS011;3631;42.152;24.756;2022-11-20T12:51:47;31.73;;;14.68;;
7179;SDS011;3631;42.152;24.756;2022-11-20T12:54:38;26.98;;;12.18;;
7179;SDS011;3631;42.152;24.756;2022-11-20T12:57:29;26.27;;;13.88;;
7179;SDS011;3631;42.152;24.756;2022-11-20T13:00:08;27.80;;;13.90;;
7179;SDS011;3631;42.152;24.756;2022-11-20T13:05:41;24.00;;;10.18;;
7179;SDS011;3631;42.152;24.756;2022-11-20T13:08:19;24.42;;;9.23;;
7179;SDS011;3631;42.152;24.756;2022-11-20T13:10:51;14.35;;;8.23;;
7179;SDS011;3631;42.152;24.756;2022-11-20T13:13:30;18.23;;;9.20;;
7179;SDS011;3631;42.152;24.756;2022-11-20T13:16:03;19.25;;;9.23;;
7179;SDS011;3631;42.152;24.756;2022-11-20T13:18:36;17.10;;;8.60;;
7179;SDS011;3631;42.152;24.756;2022-11-20T13:21:13;18.63;;;9.80;;
7179;SDS011;3631;42.152;24.756;2022-11-20T13:23:41;18.15;;;8.95;;
7179;SDS011;3631;42.152;24.756;2022-11-20T13:26:15;19.70;;;8.68;;
7179;SDS011;3631;42.152;24.756;2022-11-20T13:28:45;20.33;;;9.60;;
7179;SDS011;3631;42.152;24.756;2022-11-20T13:31:24;17.30;;;9.52;;
7179;SDS011;3631;42.152;24.756;2022-11-20T13:33:58;24.10;;;9.15;;
7179;SDS011;3631;42.152;24.756;2022-11-20T13:36:27;21.52;;;9.20;;
7179;SDS011;3631;42.152;24.756;2022-11-20T13:38:55;28.95;;;8.75;;
7179;SDS011;3631;42.152;24.756;2022-11-20T13:41:25;23.58;;;10.30;;
7179;SDS011;3631;42.152;24.756;2022-11-20T13:43:58;26.95;;;10.05;;
7179;SDS011;3631;42.152;24.756;2022-11-20T13:46:37;25.50;;;8.95;;
7179;SDS011;3631;42.152;24.756;2022-11-20T13:49:10;29.55;;;8.32;;
7179;SDS011;3631;42.152;24.756;2022-11-20T13:51:44;14.50;;;5.80;;
7179;SDS011;3631;42.152;24.756;2022-11-20T13:54:17;19.40;;;6.05;;
7179;SDS011;3631;42.152;24.756;2022-11-20T13:57:01;11.52;;;5.25;;
7179;SDS011;3631;42.152;24.756;2022-11-20T13:59:43;19.55;;;5.68;;
7179;SDS011;3631;42.152;24.756;2022-11-20T14:02:18;16.48;;;5.15;;
7179;SDS011;3631;42.152;24.756;2022-11-20T14:04:47;18.35;;;4.60;;
7179;SDS011;3631;42.152;24.756;2022-11-20T14:07:17;7.18;;;2.58;;
7179;SDS011;3631;42.152;24.756;2022-11-20T14:09:49;10.07;;;2.42;;
7179;SDS011;3631;42.152;24.756;2022-11-20T14:12:21;2.50;;;2.20;;
7179;SDS011;3631;42.152;24.756;2022-11-20T14:14:50;8.38;;;2.40;;
7179;SDS011;3631;42.152;24.756;2022-11-20T14:17:19;4.18;;;1.75;;
7179;SDS011;3631;42.152;24.756;2022-11-20T14:19:48;6.80;;;2.55;;
7179;SDS011;3631;42.152;24.756;2022-11-20T14:22:18;3.25;;;2.35;;
7179;SDS011;3631;42.152;24.756;2022-11-20T14:24:47;3.55;;;1.83;;
7179;SDS011;3631;42.152;24.756;2022-11-20T14:27:15;12.20;;;8.77;;
7179;SDS011;3631;42.152;24.756;2022-11-20T14:29:46;43.53;;;30.08;;
7179;SDS011;3631;42.152;24.756;2022-11-20T14:32:16;13.70;;;9.18;;
7179;SDS011;3631;42.152;24.756;2022-11-20T14:34:46;13.15;;;8.35;;
7179;SDS011;3631;42.152;24.756;2022-11-20T14:37:17;8.85;;;7.50;;
7179;SDS011;3631;42.152;24.756;2022-11-20T14:39:48;8.55;;;7.75;;
7179;SDS011;3631;42.152;24.756;2022-11-20T14:42:18;43.03;;;33.38;;
7179;SDS011;3631;42.152;24.756;2022-11-20T14:44:47;28.63;;;17.67;;
7179;SDS011;3631;42.152;24.756;2022-11-20T14:47:17;17.10;;;12.80;;
7179;SDS011;3631;42.152;24.756;2022-11-20T14:49:47;6.57;;;5.82;;
7179;SDS011;3631;42.152;24.756;2022-11-20T14:52:16;4.20;;;2.88;;
7179;SDS011;3631;42.152;24.756;2022-11-20T14:54:45;4.38;;;1.90;;
7179;SDS011;3631;42.152;24.756;2022-11-20T14:57:26;8.85;;;3.97;;
7179;SDS011;3631;42.152;24.756;2022-11-20T15:00:18;9.68;;;8.77;;
7179;SDS011;3631;42.152;24.756;2022-11-20T15:02:46;5.38;;;4.97;;
7179;SDS011;3631;42.152;24.756;2022-11-20T15:05:15;6.50;;;3.78;;
7179;SDS011;3631;42.152;24.756;2022-11-20T15:07:44;8.80;;;7.90;;
7179;SDS011;3631;42.152;24.756;2022-11-20T15:10:13;7.45;;;6.20;;
7179;SDS011;3631;42.152;24.756;2022-11-20T15:12:48;6.63;;;5.97;;
7179;SDS011;3631;42.152;24.756;2022-11-20T15:15:21;6.38;;;5.70;;